Khujada 2 — 2FTH3 — position and weather

sailwx.info

Track history (hours):
 
Tides and Currents Weather Stations Pressure Air Temp Water Temp Dewpoint Dewpoint Depression Visibility Wind Speed Wind Dir Waves Ship Positions

Khujada 2

Last reported at 2017-Oct-09 10:26 UTC. Time now 2017-Nov-18 12:14 UTC.
Position N 45°37' W 001°02'.
Warning: this ship's position is 40 days out of date.

Length 13 m.

Type: Sailing vessel. MMSI: 235094063.

Date/timePositionNaut miles runAvg speedWind from/ knotsBaromVisibWave heightAir tempDewpointWater temp
2017-Oct-09 10:26N 45°37' W 001°02'0 0.0
2017-Oct-09 09:59N 45°37' W 001°02'0 0.0
2017-Oct-09 09:23N 45°37' W 001°02'0 0.0
2017-Oct-09 08:53N 45°37' W 001°02'0 0.3
2017-Oct-09 08:30N 45°37' W 001°02'1 2.3
2017-Oct-09 07:58N 45°37' W 001°03'2 4.6
2017-Oct-09 07:30N 45°38' W 001°06'5 6.0
2017-Oct-09 06:40N 45°39' W 001°13'40 5.3
2017-Oct-08 23:07N 46°10' W 001°49'1 5.9
2017-Oct-08 23:00N 46°11' W 001°50'6 6.1
2017-Oct-08 22:05N 46°16' W 001°54'1 5.4
2017-Oct-08 21:58N 46°16' W 001°54'3 5.6
2017-Oct-08 21:28N 46°19' W 001°56'3 5.8
2017-Oct-08 20:59N 46°21' W 001°58'3 5.9
2017-Oct-08 20:30N 46°24' W 001°60'3 6.0
2017-Oct-08 20:00N 46°26' W 002°02'3 6.1
2017-Oct-08 19:29N 46°29' W 002°04'3 6.0
2017-Oct-08 18:59N 46°32' W 002°06'48 5.8
2017-Oct-08 10:39N 47°13' W 002°43'1 5.8
2017-Oct-08 10:29N 47°14' W 002°44'3 6.2
2017-Oct-08 10:00N 47°16' W 002°46'3 6.8
2017-Oct-08 09:29N 47°19' W 002°49'3 6.7
2017-Oct-08 09:01N 47°22' W 002°51'3 5.8
2017-Oct-08 08:30N 47°25' W 002°53'2 4.6
2017-Oct-08 08:00N 47°27' W 002°55'3 5.2
2017-Oct-08 07:30N 47°29' W 002°56'3 6.1
2017-Oct-08 07:00N 47°32' W 002°59'3 6.4
2017-Oct-08 06:30N 47°34' W 003°01'1 1.8
2017-Oct-08 06:00N 47°35' W 003°01'0 0.0
2017-Oct-08 05:30N 47°35' W 003°01'  
Track history (hours):
 
Tides and Currents Weather Stations Pressure Air Temp Water Temp Dewpoint Dewpoint Depression Visibility Wind Speed Wind Dir Waves Ship Positions

Khujada 2

Last reported at 2017-Oct-09 10:26 UTC. Time now 2017-Nov-18 12:14 UTC.
Position N 45°37' W 001°02'.
Warning: this ship's position is 40 days out of date.

Length 13 m.

Type: Sailing vessel. MMSI: 235094063.

Date/timePositionNaut miles runAvg speedWind from/ knotsBaromVisibWave heightAir tempDewpointWater temp
2017-Oct-09 10:26N 45°37' W 001°02'0 0.0
2017-Oct-09 09:59N 45°37' W 001°02'0 0.0
2017-Oct-09 09:23N 45°37' W 001°02'0 0.0
2017-Oct-09 08:53N 45°37' W 001°02'0 0.3
2017-Oct-09 08:30N 45°37' W 001°02'1 2.3
2017-Oct-09 07:58N 45°37' W 001°03'2 4.6
2017-Oct-09 07:30N 45°38' W 001°06'5 6.0
2017-Oct-09 06:40N 45°39' W 001°13'40 5.3
2017-Oct-08 23:07N 46°10' W 001°49'1 5.9
2017-Oct-08 23:00N 46°11' W 001°50'6 6.1
2017-Oct-08 22:05N 46°16' W 001°54'1 5.4
2017-Oct-08 21:58N 46°16' W 001°54'3 5.6
2017-Oct-08 21:28N 46°19' W 001°56'3 5.8
2017-Oct-08 20:59N 46°21' W 001°58'3 5.9
2017-Oct-08 20:30N 46°24' W 001°60'3 6.0
2017-Oct-08 20:00N 46°26' W 002°02'3 6.1
2017-Oct-08 19:29N 46°29' W 002°04'3 6.0
2017-Oct-08 18:59N 46°32' W 002°06'48 5.8
2017-Oct-08 10:39N 47°13' W 002°43'1 5.8
2017-Oct-08 10:29N 47°14' W 002°44'3 6.2
2017-Oct-08 10:00N 47°16' W 002°46'3 6.8
2017-Oct-08 09:29N 47°19' W 002°49'3 6.7
2017-Oct-08 09:01N 47°22' W 002°51'3 5.8
2017-Oct-08 08:30N 47°25' W 002°53'2 4.6
2017-Oct-08 08:00N 47°27' W 002°55'3 5.2
2017-Oct-08 07:30N 47°29' W 002°56'3 6.1
2017-Oct-08 07:00N 47°32' W 002°59'3 6.4
2017-Oct-08 06:30N 47°34' W 003°01'1 1.8
2017-Oct-08 06:00N 47°35' W 003°01'0 0.0
2017-Oct-08 05:30N 47°35' W 003°01'  

Dump ship's entire track history